sensor_id;sensor_type;location;lat;lon;timestamp;pressure;altitude;pressure_sealevel;temperature;humidity
29371;BME280;16357;52.188;7.838;2023-06-14T00:01:27;100834.41;;;21.87;29.59
29371;BME280;16357;52.188;7.838;2023-06-14T00:03:55;100842.44;;;21.82;29.76
29371;BME280;16357;52.188;7.838;2023-06-14T00:06:22;100842.09;;;21.79;29.69
29371;BME280;16357;52.188;7.838;2023-06-14T00:08:50;100843.59;;;21.75;29.86
29371;BME280;16357;52.188;7.838;2023-06-14T00:11:17;100842.41;;;21.70;29.93
29371;BME280;16357;52.188;7.838;2023-06-14T00:13:44;100850.22;;;21.67;30.01
29371;BME280;16357;52.188;7.838;2023-06-14T00:16:10;100842.44;;;21.64;30.12
29371;BME280;16357;52.188;7.838;2023-06-14T00:18:38;100847.75;;;21.59;30.04
29371;BME280;16357;52.188;7.838;2023-06-14T00:21:05;100856.66;;;21.54;30.22
29371;BME280;16357;52.188;7.838;2023-06-14T00:23:31;100851.63;;;21.51;30.37
29371;BME280;16357;52.188;7.838;2023-06-14T00:25:58;100855.88;;;21.47;30.37
29371;BME280;16357;52.188;7.838;2023-06-14T00:28:24;100853.81;;;21.42;30.77
29371;BME280;16357;52.188;7.838;2023-06-14T00:30:51;100853.63;;;21.37;30.61
29371;BME280;16357;52.188;7.838;2023-06-14T00:33:17;100856.81;;;21.34;30.65
29371;BME280;16357;52.188;7.838;2023-06-14T00:35:44;100855.00;;;21.28;30.87
29371;BME280;16357;52.188;7.838;2023-06-14T00:38:10;100860.91;;;21.25;30.83
29371;BME280;16357;52.188;7.838;2023-06-14T00:40:37;100859.03;;;21.19;31.15
29371;BME280;16357;52.188;7.838;2023-06-14T00:43:03;100856.16;;;21.14;31.09
29371;BME280;16357;52.188;7.838;2023-06-14T00:45:30;100854.94;;;21.10;31.57
29371;BME280;16357;52.188;7.838;2023-06-14T00:47:58;100860.84;;;21.07;31.27
29371;BME280;16357;52.188;7.838;2023-06-14T00:50:25;100858.53;;;21.03;31.25
29371;BME280;16357;52.188;7.838;2023-06-14T00:52:52;100860.88;;;21.00;31.41
29371;BME280;16357;52.188;7.838;2023-06-14T00:55:19;100858.63;;;20.97;31.40
29371;BME280;16357;52.188;7.838;2023-06-14T00:57:46;100861.78;;;20.94;31.38
29371;BME280;16357;52.188;7.838;2023-06-14T01:00:13;100871.25;;;20.91;31.62
29371;BME280;16357;52.188;7.838;2023-06-14T01:02:41;100868.09;;;20.88;31.65
29371;BME280;16357;52.188;7.838;2023-06-14T01:05:09;100867.53;;;20.86;31.86
29371;BME280;16357;52.188;7.838;2023-06-14T01:15:32;100878.53;;;20.72;31.90
29371;BME280;16357;52.188;7.838;2023-06-14T01:17:59;100874.56;;;20.68;32.21
29371;BME280;16357;52.188;7.838;2023-06-14T01:20:32;100872.28;;;20.65;32.11
29371;BME280;16357;52.188;7.838;2023-06-14T01:22:59;100881.09;;;20.60;32.32
29371;BME280;16357;52.188;7.838;2023-06-14T01:25:26;100876.91;;;20.58;32.38
29371;BME280;16357;52.188;7.838;2023-06-14T01:27:53;100876.72;;;20.53;32.58
29371;BME280;16357;52.188;7.838;2023-06-14T01:30:21;100880.09;;;20.48;32.42
29371;BME280;16357;52.188;7.838;2023-06-14T01:32:49;100878.88;;;20.44;32.78
29371;BME280;16357;52.188;7.838;2023-06-14T01:35:17;100881.19;;;20.41;32.73
29371;BME280;16357;52.188;7.838;2023-06-14T01:37:47;100879.94;;;20.36;32.74
29371;BME280;16357;52.188;7.838;2023-06-14T01:40:15;100886.88;;;20.32;32.93
29371;BME280;16357;52.188;7.838;2023-06-14T01:42:43;100887.56;;;20.28;32.92
29371;BME280;16357;52.188;7.838;2023-06-14T01:45:12;100892.38;;;20.26;33.14
29371;BME280;16357;52.188;7.838;2023-06-14T01:47:38;100898.25;;;20.23;33.16
29371;BME280;16357;52.188;7.838;2023-06-14T01:50:06;100892.38;;;20.19;33.31
29371;BME280;16357;52.188;7.838;2023-06-14T01:52:33;100886.53;;;20.15;33.30
29371;BME280;16357;52.188;7.838;2023-06-14T01:54:59;100892.44;;;20.12;33.55
29371;BME280;16357;52.188;7.838;2023-06-14T01:57:28;100893.69;;;20.10;33.43
29371;BME280;16357;52.188;7.838;2023-06-14T01:59:55;100893.28;;;20.06;33.46
29371;BME280;16357;52.188;7.838;2023-06-14T02:02:22;100894.78;;;20.02;33.54
29371;BME280;16357;52.188;7.838;2023-06-14T02:04:49;100885.34;;;19.98;33.82
29371;BME280;16357;52.188;7.838;2023-06-14T02:07:15;100895.00;;;19.94;34.14
29371;BME280;16357;52.188;7.838;2023-06-14T02:09:42;100891.25;;;19.88;34.44
29371;BME280;16357;52.188;7.838;2023-06-14T02:12:08;100890.00;;;19.84;34.28
29371;BME280;16357;52.188;7.838;2023-06-14T02:14:36;100886.25;;;19.79;34.26
29371;BME280;16357;52.188;7.838;2023-06-14T02:17:02;100879.56;;;19.74;34.25
29371;BME280;16357;52.188;7.838;2023-06-14T02:19:29;100887.53;;;19.69;34.52
29371;BME280;16357;52.188;7.838;2023-06-14T02:21:55;100891.91;;;19.64;34.71
29371;BME280;16357;52.188;7.838;2023-06-14T02:24:21;100897.13;;;19.59;34.64
29371;BME280;16357;52.188;7.838;2023-06-14T02:26:50;100892.34;;;19.54;34.84
29371;BME280;16357;52.188;7.838;2023-06-14T02:29:16;100892.97;;;19.49;35.04
29371;BME280;16357;52.188;7.838;2023-06-14T02:31:43;100890.69;;;19.46;35.15
29371;BME280;16357;52.188;7.838;2023-06-14T02:34:09;100894.66;;;19.44;35.00
29371;BME280;16357;52.188;7.838;2023-06-14T02:36:36;100896.97;;;19.40;34.84
29371;BME280;16357;52.188;7.838;2023-06-14T02:39:08;100898.22;;;19.38;35.27
29371;BME280;16357;52.188;7.838;2023-06-14T02:41:37;100903.06;;;19.36;35.12
29371;BME280;16357;52.188;7.838;2023-06-14T02:44:04;100900.97;;;19.31;35.52
29371;BME280;16357;52.188;7.838;2023-06-14T02:46:31;100898.44;;;19.29;35.75
29371;BME280;16357;52.188;7.838;2023-06-14T02:48:57;100903.66;;;19.24;35.60
29371;BME280;16357;52.188;7.838;2023-06-14T02:51:24;100907.03;;;19.20;35.61
29371;BME280;16357;52.188;7.838;2023-06-14T02:53:50;100902.22;;;19.15;35.80
29371;BME280;16357;52.188;7.838;2023-06-14T02:56:17;100910.78;;;19.12;35.64
29371;BME280;16357;52.188;7.838;2023-06-14T02:58:45;100906.16;;;19.06;36.03
29371;BME280;16357;52.188;7.838;2023-06-14T03:01:12;100915.59;;;19.03;36.17
29371;BME280;16357;52.188;7.838;2023-06-14T03:03:39;100917.06;;;18.99;36.40
29371;BME280;16357;52.188;7.838;2023-06-14T03:06:06;100922.09;;;18.96;36.21
29371;BME280;16357;52.188;7.838;2023-06-14T03:08:34;100917.25;;;18.91;36.31
29371;BME280;16357;52.188;7.838;2023-06-14T03:11:05;100923.31;;;18.86;36.44
29371;BME280;16357;52.188;7.838;2023-06-14T03:13:32;100928.53;;;18.81;36.56
29371;BME280;16357;52.188;7.838;2023-06-14T03:16:01;100927.28;;;18.77;37.04
29371;BME280;16357;52.188;7.838;2023-06-14T03:18:31;100931.41;;;18.73;36.99
29371;BME280;16357;52.188;7.838;2023-06-14T03:21:02;100933.91;;;18.68;37.03
29371;BME280;16357;52.188;7.838;2023-06-14T03:23:29;100936.41;;;18.63;37.01
29371;BME280;16357;52.188;7.838;2023-06-14T03:25:56;100939.72;;;18.58;37.32
29371;BME280;16357;52.188;7.838;2023-06-14T03:28:23;100944.72;;;18.55;37.60
29371;BME280;16357;52.188;7.838;2023-06-14T03:30:49;100949.94;;;18.50;37.70
29371;BME280;16357;52.188;7.838;2023-06-14T03:33:16;100949.72;;;18.45;37.56
29371;BME280;16357;52.188;7.838;2023-06-14T03:35:43;100952.00;;;18.41;37.72
29371;BME280;16357;52.188;7.838;2023-06-14T03:38:09;100965.13;;;18.37;37.84
29371;BME280;16357;52.188;7.838;2023-06-14T03:40:36;100964.72;;;18.34;38.23
29371;BME280;16357;52.188;7.838;2023-06-14T03:43:02;100962.41;;;18.31;38.08
29371;BME280;16357;52.188;7.838;2023-06-14T03:45:29;100960.94;;;18.28;38.33
29371;BME280;16357;52.188;7.838;2023-06-14T03:47:55;100962.16;;;18.26;38.23
29371;BME280;16357;52.188;7.838;2023-06-14T03:50:23;100978.66;;;18.24;38.24
29371;BME280;16357;52.188;7.838;2023-06-14T03:52:49;100972.38;;;18.24;38.27
29371;BME280;16357;52.188;7.838;2023-06-14T03:55:16;100974.28;;;18.23;38.38
29371;BME280;16357;52.188;7.838;2023-06-14T03:57:46;100971.56;;;18.23;38.01
29371;BME280;16357;52.188;7.838;2023-06-14T04:00:12;100975.94;;;18.24;38.23
29371;BME280;16357;52.188;7.838;2023-06-14T04:02:39;100973.22;;;18.24;38.31
29371;BME280;16357;52.188;7.838;2023-06-14T04:05:07;100971.97;;;18.27;38.43
29371;BME280;16357;52.188;7.838;2023-06-14T04:07:35;100977.41;;;18.27;38.54
29371;BME280;16357;52.188;7.838;2023-06-14T04:10:07;100979.09;;;18.28;38.48
29371;BME280;16357;52.188;7.838;2023-06-14T04:12:34;100986.22;;;18.29;38.64
29371;BME280;16357;52.188;7.838;2023-06-14T04:15:01;100986.03;;;18.30;38.64
29371;BME280;16357;52.188;7.838;2023-06-14T04:17:46;100997.91;;;18.29;38.88
29371;BME280;16357;52.188;7.838;2023-06-14T04:20:12;100998.53;;;18.31;38.75
29371;BME280;16357;52.188;7.838;2023-06-14T04:22:39;100997.72;;;18.31;38.96
29371;BME280;16357;52.188;7.838;2023-06-14T04:25:07;100995.84;;;18.31;38.85
29371;BME280;16357;52.188;7.838;2023-06-14T04:27:34;100999.38;;;18.32;39.11
29371;BME280;16357;52.188;7.838;2023-06-14T04:30:03;101006.50;;;18.33;39.23
29371;BME280;16357;52.188;7.838;2023-06-14T04:32:30;101007.13;;;18.35;39.06
29371;BME280;16357;52.188;7.838;2023-06-14T04:35:00;101005.28;;;18.35;39.25
29371;BME280;16357;52.188;7.838;2023-06-14T04:37:30;101021.16;;;18.38;39.37
29371;BME280;16357;52.188;7.838;2023-06-14T04:39:56;101022.81;;;18.39;39.22
29371;BME280;16357;52.188;7.838;2023-06-14T04:42:24;101019.91;;;18.41;39.50
29371;BME280;16357;52.188;7.838;2023-06-14T04:44:57;101024.13;;;18.43;39.33
29371;BME280;16357;52.188;7.838;2023-06-14T04:47:24;101029.53;;;18.43;39.66
29371;BME280;16357;52.188;7.838;2023-06-14T04:49:57;101022.88;;;18.46;39.44
29371;BME280;16357;52.188;7.838;2023-06-14T04:52:24;101030.81;;;18.48;39.55
29371;BME280;16357;52.188;7.838;2023-06-14T04:54:52;101028.72;;;18.50;39.63
29371;BME280;16357;52.188;7.838;2023-06-14T04:57:20;101030.41;;;18.51;39.86
29371;BME280;16357;52.188;7.838;2023-06-14T04:59:48;101030.03;;;18.54;39.69
29371;BME280;16357;52.188;7.838;2023-06-14T05:02:17;101033.34;;;18.56;39.76
29371;BME280;16357;52.188;7.838;2023-06-14T05:04:44;101030.25;;;18.59;39.35
29371;BME280;16357;52.188;7.838;2023-06-14T05:07:11;101029.84;;;18.62;39.68
29371;BME280;16357;52.188;7.838;2023-06-14T05:09:37;101040.31;;;18.65;39.88
29371;BME280;16357;52.188;7.838;2023-06-14T05:12:04;101032.78;;;18.67;39.81
29371;BME280;16357;52.188;7.838;2023-06-14T05:14:31;101035.94;;;18.71;39.96
29371;BME280;16357;52.188;7.838;2023-06-14T05:16:57;101032.81;;;18.74;40.23
29371;BME280;16357;52.188;7.838;2023-06-14T05:19:23;101030.56;;;18.77;39.90
29371;BME280;16357;52.188;7.838;2023-06-14T05:21:50;101033.50;;;18.82;40.04
29371;BME280;16357;52.188;7.838;2023-06-14T05:24:17;101044.81;;;18.86;39.81
29371;BME280;16357;52.188;7.838;2023-06-14T05:26:44;101041.28;;;18.92;39.80
29371;BME280;16357;52.188;7.838;2023-06-14T05:29:11;101043.16;;;18.98;39.62
29371;BME280;16357;52.188;7.838;2023-06-14T05:31:38;101049.47;;;19.05;39.42
29371;BME280;16357;52.188;7.838;2023-06-14T05:34:04;101042.38;;;19.11;39.69
29371;BME280;16357;52.188;7.838;2023-06-14T05:36:31;101041.56;;;19.17;39.53
29371;BME280;16357;52.188;7.838;2023-06-14T05:38:57;101037.19;;;19.23;39.44
29371;BME280;16357;52.188;7.838;2023-06-14T05:41:26;101037.41;;;19.28;39.49
29371;BME280;16357;52.188;7.838;2023-06-14T05:43:56;101047.25;;;19.36;39.23
29371;BME280;16357;52.188;7.838;2023-06-14T05:46:23;101047.47;;;19.41;39.02
29371;BME280;16357;52.188;7.838;2023-06-14T05:48:52;101054.78;;;19.47;38.94
29371;BME280;16357;52.188;7.838;2023-06-14T05:51:19;101052.06;;;19.53;39.07
29371;BME280;16357;52.188;7.838;2023-06-14T05:53:46;101061.31;;;19.59;39.07
29371;BME280;16357;52.188;7.838;2023-06-14T05:56:14;101065.91;;;19.65;38.60
29371;BME280;16357;52.188;7.838;2023-06-14T05:58:41;101062.38;;;19.71;38.68
29371;BME280;16357;52.188;7.838;2023-06-14T06:01:07;101069.50;;;19.79;38.69
29371;BME280;16357;52.188;7.838;2023-06-14T06:03:34;101069.50;;;19.86;38.79
29371;BME280;16357;52.188;7.838;2023-06-14T06:06:00;101073.91;;;19.93;38.64
29371;BME280;16357;52.188;7.838;2023-06-14T06:08:27;101073.69;;;20.02;38.61
29371;BME280;16357;52.188;7.838;2023-06-14T06:10:53;101079.13;;;20.08;38.21
29371;BME280;16357;52.188;7.838;2023-06-14T06:13:20;101082.69;;;20.15;38.47
29371;BME280;16357;52.188;7.838;2023-06-14T06:15:47;101080.78;;;20.23;38.00
29371;BME280;16357;52.188;7.838;2023-06-14T06:18:13;101082.66;;;20.29;38.32
29371;BME280;16357;52.188;7.838;2023-06-14T06:20:40;101084.31;;;20.36;38.10
29371;BME280;16357;52.188;7.838;2023-06-14T06:23:06;101081.38;;;20.45;38.22
29371;BME280;16357;52.188;7.838;2023-06-14T06:25:34;101074.22;;;20.50;37.95
29371;BME280;16357;52.188;7.838;2023-06-14T06:28:00;101084.31;;;20.56;37.70
29371;BME280;16357;52.188;7.838;2023-06-14T06:30:27;101077.38;;;20.60;37.96
29371;BME280;16357;52.188;7.838;2023-06-14T06:32:54;101076.50;;;20.67;37.66
29371;BME280;16357;52.188;7.838;2023-06-14T06:35:22;101078.38;;;20.73;37.48
29371;BME280;16357;52.188;7.838;2023-06-14T06:37:49;101084.03;;;20.78;37.52
29371;BME280;16357;52.188;7.838;2023-06-14T06:40:15;101081.50;;;20.83;37.23
29371;BME280;16357;52.188;7.838;2023-06-14T06:42:42;101072.44;;;20.89;37.24
29371;BME280;16357;52.188;7.838;2023-06-14T06:45:08;101085.00;;;20.97;37.30
29371;BME280;16357;52.188;7.838;2023-06-14T06:47:35;101080.97;;;21.06;37.14
29371;BME280;16357;52.188;7.838;2023-06-14T06:50:02;101083.66;;;21.13;37.11
29371;BME280;16357;52.188;7.838;2023-06-14T06:52:28;101092.03;;;21.18;37.46
29371;BME280;16357;52.188;7.838;2023-06-14T06:54:55;101094.94;;;21.23;36.70
29371;BME280;16357;52.188;7.838;2023-06-14T06:57:22;101092.59;;;21.26;36.81
29371;BME280;16357;52.188;7.838;2023-06-14T06:59:50;101091.34;;;21.29;36.66
29371;BME280;16357;52.188;7.838;2023-06-14T07:02:16;101091.53;;;21.34;36.62
29371;BME280;16357;52.188;7.838;2023-06-14T07:04:43;101092.81;;;21.38;36.19
29371;BME280;16357;52.188;7.838;2023-06-14T07:07:10;101106.63;;;21.43;35.97
29371;BME280;16357;52.188;7.838;2023-06-14T07:09:36;101098.38;;;21.50;35.92
29371;BME280;16357;52.188;7.838;2023-06-14T07:12:03;101098.56;;;21.55;35.75
29371;BME280;16357;52.188;7.838;2023-06-14T07:14:30;101105.84;;;21.61;35.96
29371;BME280;16357;52.188;7.838;2023-06-14T07:16:56;101106.91;;;21.67;35.87
29371;BME280;16357;52.188;7.838;2023-06-14T07:19:23;101113.38;;;21.73;35.54
29371;BME280;16357;52.188;7.838;2023-06-14T07:21:49;101100.72;;;21.78;35.37
29371;BME280;16357;52.188;7.838;2023-06-14T07:24:16;101099.19;;;21.82;35.03
29371;BME280;16357;52.188;7.838;2023-06-14T07:26:43;101113.25;;;21.86;34.33
29371;BME280;16357;52.188;7.838;2023-06-14T07:29:12;101111.75;;;21.90;34.03
29371;BME280;16357;52.188;7.838;2023-06-14T07:31:38;101111.53;;;21.91;34.54
29371;BME280;16357;52.188;7.838;2023-06-14T07:34:05;101117.16;;;21.97;34.32
29371;BME280;16357;52.188;7.838;2023-06-14T07:36:32;101119.00;;;22.03;34.49
29371;BME280;16357;52.188;7.838;2023-06-14T07:38:58;101109.91;;;22.09;34.25
29371;BME280;16357;52.188;7.838;2023-06-14T07:41:25;101110.69;;;22.16;34.19
29371;BME280;16357;52.188;7.838;2023-06-14T07:43:53;101112.13;;;22.25;34.14
29371;BME280;16357;52.188;7.838;2023-06-14T07:46:19;101102.56;;;22.34;34.20
29371;BME280;16357;52.188;7.838;2023-06-14T07:48:46;101104.16;;;22.42;34.16
29371;BME280;16357;52.188;7.838;2023-06-14T07:51:13;101105.75;;;22.50;33.75
29371;BME280;16357;52.188;7.838;2023-06-14T07:53:40;101104.84;;;22.56;34.27
29371;BME280;16357;52.188;7.838;2023-06-14T07:56:07;101112.75;;;22.64;34.18
29371;BME280;16357;52.188;7.838;2023-06-14T07:58:34;101111.41;;;22.73;33.93
29371;BME280;16357;52.188;7.838;2023-06-14T08:01:00;101100.38;;;22.80;33.79
29371;BME280;16357;52.188;7.838;2023-06-14T08:03:29;101113.97;;;22.87;33.69
29371;BME280;16357;52.188;7.838;2023-06-14T08:05:57;101116.25;;;22.90;33.40
29371;BME280;16357;52.188;7.838;2023-06-14T08:08:23;101119.59;;;22.92;33.49
29371;BME280;16357;52.188;7.838;2023-06-14T08:10:50;101121.72;;;22.90;33.33
29371;BME280;16357;52.188;7.838;2023-06-14T08:13:16;101119.44;;;22.87;33.61
29371;BME280;16357;52.188;7.838;2023-06-14T08:15:43;101119.91;;;22.84;33.80
29371;BME280;16357;52.188;7.838;2023-06-14T08:18:10;101123.94;;;22.81;34.21
29371;BME280;16357;52.188;7.838;2023-06-14T08:20:36;101120.38;;;22.81;33.99
29371;BME280;16357;52.188;7.838;2023-06-14T08:23:04;101118.22;;;22.83;33.71
29371;BME280;16357;52.188;7.838;2023-06-14T08:25:30;101128.72;;;22.86;32.97
29371;BME280;16357;52.188;7.838;2023-06-14T08:27:58;101118.16;;;22.89;32.54
29371;BME280;16357;52.188;7.838;2023-06-14T08:30:24;101125.91;;;22.92;32.26
29371;BME280;16357;52.188;7.838;2023-06-14T08:32:51;101122.50;;;22.97;31.98
29371;BME280;16357;52.188;7.838;2023-06-14T08:35:35;101137.41;;;23.01;31.53
29371;BME280;16357;52.188;7.838;2023-06-14T08:38:03;101127.31;;;23.02;31.62
29371;BME280;16357;52.188;7.838;2023-06-14T08:40:30;101133.81;;;23.00;31.72
29371;BME280;16357;52.188;7.838;2023-06-14T08:42:57;101127.53;;;23.00;31.53
29371;BME280;16357;52.188;7.838;2023-06-14T08:45:24;101121.22;;;22.99;31.43
29371;BME280;16357;52.188;7.838;2023-06-14T08:47:56;101118.50;;;22.99;31.94
29371;BME280;16357;52.188;7.838;2023-06-14T08:50:27;101118.25;;;23.01;31.71
29371;BME280;16357;52.188;7.838;2023-06-14T08:53:00;101129.59;;;23.05;32.15
29371;BME280;16357;52.188;7.838;2023-06-14T08:55:31;101130.19;;;23.07;32.02
29371;BME280;16357;52.188;7.838;2023-06-14T08:58:02;101127.00;;;23.10;32.23
29371;BME280;16357;52.188;7.838;2023-06-14T09:00:31;101126.53;;;23.13;31.76
29371;BME280;16357;52.188;7.838;2023-06-14T09:03:00;101124.75;;;23.18;31.71
29371;BME280;16357;52.188;7.838;2023-06-14T09:05:27;101129.31;;;23.25;32.19
29371;BME280;16357;52.188;7.838;2023-06-14T09:07:54;101124.59;;;23.32;31.72
29371;BME280;16357;52.188;7.838;2023-06-14T09:10:22;101128.69;;;23.41;31.86
29371;BME280;16357;52.188;7.838;2023-06-14T09:12:51;101135.75;;;23.49;31.97
29371;BME280;16357;52.188;7.838;2023-06-14T09:15:17;101118.38;;;23.55;31.88
29371;BME280;16357;52.188;7.838;2023-06-14T09:17:44;101133.63;;;23.62;31.84
29371;BME280;16357;52.188;7.838;2023-06-14T09:20:11;101138.19;;;23.69;31.82
29371;BME280;16357;52.188;7.838;2023-06-14T09:22:45;101145.47;;;23.75;31.25
29371;BME280;16357;52.188;7.838;2023-06-14T09:25:11;101134.06;;;23.78;31.12
29371;BME280;16357;52.188;7.838;2023-06-14T09:28:01;101132.53;;;23.82;31.16
29371;BME280;16357;52.188;7.838;2023-06-14T09:30:28;101143.25;;;23.83;30.84
29371;BME280;16357;52.188;7.838;2023-06-14T09:32:55;101136.94;;;23.83;30.85
29371;BME280;16357;52.188;7.838;2023-06-14T09:35:22;101138.59;;;23.84;31.24
29371;BME280;16357;52.188;7.838;2023-06-14T09:37:50;101133.72;;;23.86;30.97
29371;BME280;16357;52.188;7.838;2023-06-14T09:40:20;101138.25;;;23.92;30.99
29371;BME280;16357;52.188;7.838;2023-06-14T09:42:47;101142.22;;;23.96;30.83
29371;BME280;16357;52.188;7.838;2023-06-14T09:45:15;101140.91;;;23.99;30.67
29371;BME280;16357;52.188;7.838;2023-06-14T09:47:46;101139.34;;;24.03;31.02
29371;BME280;16357;52.188;7.838;2023-06-14T09:50:31;101134.81;;;24.08;30.54
29371;BME280;16357;52.188;7.838;2023-06-14T09:53:10;101135.22;;;24.12;31.03
29371;BME280;16357;52.188;7.838;2023-06-14T09:55:40;101140.22;;;24.15;31.06
29371;BME280;16357;52.188;7.838;2023-06-14T09:58:08;101138.91;;;24.18;30.88
29371;BME280;16357;52.188;7.838;2023-06-14T10:00:37;101140.91;;;24.22;30.35
29371;BME280;16357;52.188;7.838;2023-06-14T10:03:18;101139.50;;;24.31;30.57
29371;BME280;16357;52.188;7.838;2023-06-14T10:05:47;101130.56;;;24.36;30.61
29371;BME280;16357;52.188;7.838;2023-06-14T10:08:16;101144.41;;;24.41;30.73
29371;BME280;16357;52.188;7.838;2023-06-14T10:10:44;101135.25;;;24.47;30.46
29371;BME280;16357;52.188;7.838;2023-06-14T10:13:11;101136.19;;;24.53;30.49
29371;BME280;16357;52.188;7.838;2023-06-14T10:18:42;101134.63;;;24.69;30.54
29371;BME280;16357;52.188;7.838;2023-06-14T10:21:20;101142.47;;;24.77;30.50
29371;BME280;16357;52.188;7.838;2023-06-14T10:23:49;101128.03;;;24.82;30.46
29371;BME280;16357;52.188;7.838;2023-06-14T10:26:20;101137.47;;;24.86;30.14
29371;BME280;16357;52.188;7.838;2023-06-14T10:28:58;101137.22;;;24.87;30.16
29371;BME280;16357;52.188;7.838;2023-06-14T10:31:45;101139.72;;;24.89;30.35
29371;BME280;16357;52.188;7.838;2023-06-14T10:34:20;101132.81;;;24.86;30.03
29371;BME280;16357;52.188;7.838;2023-06-14T10:37:00;101131.97;;;24.86;30.26
29371;BME280;16357;52.188;7.838;2023-06-14T10:39:29;101131.88;;;24.81;30.54
29371;BME280;16357;52.188;7.838;2023-06-14T10:41:57;101121.13;;;24.79;29.73
29371;BME280;16357;52.188;7.838;2023-06-14T10:46:53;101139.63;;;24.72;30.30
29371;BME280;16357;52.188;7.838;2023-06-14T10:49:36;101137.34;;;24.69;30.34
29371;BME280;16357;52.188;7.838;2023-06-14T10:52:08;101129.63;;;24.66;30.28
29371;BME280;16357;52.188;7.838;2023-06-14T10:54:38;101124.13;;;24.66;30.50
29371;BME280;16357;52.188;7.838;2023-06-14T10:57:06;101128.06;;;24.70;30.11
29371;BME280;16357;52.188;7.838;2023-06-14T10:59:33;101121.84;;;24.74;30.54
29371;BME280;16357;52.188;7.838;2023-06-14T11:02:13;101126.13;;;24.82;30.48
29371;BME280;16357;52.188;7.838;2023-06-14T11:04:49;101108.44;;;24.90;29.88
29371;BME280;16357;52.188;7.838;2023-06-14T11:12:47;101119.03;;;25.10;30.41
29371;BME280;16357;52.188;7.838;2023-06-14T11:15:14;101122.47;;;25.17;30.15
29371;BME280;16357;52.188;7.838;2023-06-14T11:17:51;101119.94;;;25.27;29.71
29371;BME280;16357;52.188;7.838;2023-06-14T11:20:19;101128.28;;;25.32;29.44
29371;BME280;16357;52.188;7.838;2023-06-14T11:22:48;101129.47;;;25.36;29.65
29371;BME280;16357;52.188;7.838;2023-06-14T11:25:15;101108.31;;;25.37;29.46
29371;BME280;16357;52.188;7.838;2023-06-14T11:27:42;101109.97;;;25.38;29.36
29371;BME280;16357;52.188;7.838;2023-06-14T11:30:10;101115.56;;;25.43;29.75
29371;BME280;16357;52.188;7.838;2023-06-14T11:32:37;101102.41;;;25.45;29.73
29371;BME280;16357;52.188;7.838;2023-06-14T11:35:04;101104.66;;;25.48;29.31
29371;BME280;16357;52.188;7.838;2023-06-14T11:37:31;101102.28;;;25.52;28.98
29371;BME280;16357;52.188;7.838;2023-06-14T11:40:01;101099.03;;;25.55;29.14
29371;BME280;16357;52.188;7.838;2023-06-14T11:42:29;101098.28;;;25.59;29.32
29371;BME280;16357;52.188;7.838;2023-06-14T11:44:56;101097.53;;;25.64;28.88
29371;BME280;16357;52.188;7.838;2023-06-14T11:47:35;101094.88;;;25.69;29.04
29371;BME280;16357;52.188;7.838;2023-06-14T11:50:04;101094.38;;;25.72;28.43
29371;BME280;16357;52.188;7.838;2023-06-14T11:52:31;101085.66;;;25.75;28.60
29371;BME280;16357;52.188;7.838;2023-06-14T11:54:58;101084.88;;;25.80;28.96
29371;BME280;16357;52.188;7.838;2023-06-14T11:57:25;101081.19;;;25.86;28.55
29371;BME280;16357;52.188;7.838;2023-06-14T11:59:52;101093.91;;;25.92;28.50
29371;BME280;16357;52.188;7.838;2023-06-14T12:02:22;101105.25;;;25.96;28.49
29371;BME280;16357;52.188;7.838;2023-06-14T12:04:50;101095.41;;;26.00;28.55
29371;BME280;16357;52.188;7.838;2023-06-14T12:07:18;101091.94;;;26.04;28.61
29371;BME280;16357;52.188;7.838;2023-06-14T12:12:25;101094.34;;;26.18;28.29
29371;BME280;16357;52.188;7.838;2023-06-14T12:14:53;101085.88;;;26.24;28.10
29371;BME280;16357;52.188;7.838;2023-06-14T12:17:21;101081.03;;;26.32;27.55
29371;BME280;16357;52.188;7.838;2023-06-14T12:19:49;101084.69;;;26.37;27.09
29371;BME280;16357;52.188;7.838;2023-06-14T12:22:16;101091.63;;;26.40;26.97
29371;BME280;16357;52.188;7.838;2023-06-14T12:24:44;101085.00;;;26.41;26.87
29371;BME280;16357;52.188;7.838;2023-06-14T12:27:14;101089.97;;;26.39;27.31
29371;BME280;16357;52.188;7.838;2023-06-14T12:29:56;101079.19;;;26.37;27.55
29371;BME280;16357;52.188;7.838;2023-06-14T12:32:24;101074.22;;;26.34;27.72
29371;BME280;16357;52.188;7.838;2023-06-14T12:34:51;101057.94;;;26.33;27.67
29371;BME280;16357;52.188;7.838;2023-06-14T12:37:17;101072.56;;;26.33;27.45
29371;BME280;16357;52.188;7.838;2023-06-14T12:39:44;101066.19;;;26.33;27.06
29371;BME280;16357;52.188;7.838;2023-06-14T12:42:10;101080.53;;;26.35;27.25
29371;BME280;16357;52.188;7.838;2023-06-14T12:44:37;101078.38;;;26.37;27.61
29371;BME280;16357;52.188;7.838;2023-06-14T12:47:07;101074.88;;;26.41;27.94
29371;BME280;16357;52.188;7.838;2023-06-14T12:49:33;101080.16;;;26.48;27.84
29371;BME280;16357;52.188;7.838;2023-06-14T12:52:00;101088.84;;;26.57;27.29
29371;BME280;16357;52.188;7.838;2023-06-14T12:54:26;101082.66;;;26.66;27.20
29371;BME280;16357;52.188;7.838;2023-06-14T12:57:06;101076.19;;;26.78;27.25
29371;BME280;16357;52.188;7.838;2023-06-14T12:59:32;101082.66;;;26.88;27.18
29371;BME280;16357;52.188;7.838;2023-06-14T13:02:10;101091.88;;;26.99;27.01
29371;BME280;16357;52.188;7.838;2023-06-14T13:04:37;101084.22;;;27.06;27.09
29371;BME280;16357;52.188;7.838;2023-06-14T13:07:04;101092.31;;;27.13;26.75
29371;BME280;16357;52.188;7.838;2023-06-14T13:09:30;101097.91;;;27.18;26.49
29371;BME280;16357;52.188;7.838;2023-06-14T13:11:57;101092.69;;;27.22;26.41
29371;BME280;16357;52.188;7.838;2023-06-14T13:14:23;101091.63;;;27.23;26.52
29371;BME280;16357;52.188;7.838;2023-06-14T13:16:54;101085.59;;;27.26;26.34